Time;durP1;ratioP1;P1;durP2;ratioP2;P2;SDS_P1;SDS_P2;PMS_P1;PMS_P2;Temp;Humidity;BMP_temperature;BMP_pressure;BME280_temperature;BME280_humidity;BME280_pressure;Samples;Min_cycle;Max_cycle;Signal;HPM_P1;HPM_P2
2022/06/26 00:01:09;;;;;;;51.47;18.60;;;;;;;-143.10;92.30;50881.47;5022194;28;20469;-70
2022/06/26 00:03:58;;;;;;;45.92;18.55;;;;;;;-143.10;90.16;50920.63;5015725;28;20260;-69
2022/06/26 00:06:40;;;;;;;40.67;18.15;;;;;;;-143.10;92.18;50854.06;5020242;28;20076;-69
2022/06/26 00:09:29;;;;;;;44.00;17.48;;;;;;;-143.10;91.01;50834.47;5018437;28;20057;-68
2022/06/26 00:12:11;;;;;;;43.60;16.67;;;;;;;-143.10;94.52;50889.31;5018168;28;20061;-69
2022/06/26 00:15:00;;;;;;;45.13;18.13;;;;;;;-143.10;95.36;50869.72;5013721;28;20458;-69
2022/06/26 00:17:42;;;;;;;42.50;18.23;;;;;;;-143.10;94.41;50850.16;5017434;28;20045;-69
2022/06/26 00:20:31;;;;;;;40.67;18.45;;;;;;;-143.10;93.82;50871.69;5019549;28;20183;-69
2022/06/26 00:23:13;;;;;;;41.55;17.50;;;;;;;-143.10;94.28;50891.25;5019269;28;20235;-70
2022/06/26 00:26:02;;;;;;;47.78;17.73;;;;;;;-143.10;95.94;50871.69;5021541;28;20556;-70
2022/06/26 00:28:44;;;;;;;47.72;18.25;;;;;;;-143.10;94.60;50857.97;5020914;28;20052;-70
2022/06/26 00:31:33;;;;;;;44.92;18.75;;;;;;;-143.10;95.14;50863.84;5021193;28;20111;-70
2022/06/26 00:34:15;;;;;;;49.97;18.23;;;;;;;-143.10;93.87;50885.38;4994689;28;20120;-70
2022/06/26 00:37:04;;;;;;;60.67;22.10;;;;;;;-143.10;89.88;50914.75;5019717;28;20560;-70
2022/06/26 00:39:46;;;;;;;68.20;29.75;;;;;;;-143.10;86.53;50903.00;5017252;28;20057;-70
2022/06/26 00:42:42;;;;;;;69.55;29.20;;;;;;;-143.10;87.21;50865.81;5026314;28;20033;-72
2022/06/26 00:45:31;;;;;;;92.90;39.78;;;;;;;-143.10;83.52;50857.97;5024991;28;20045;-70
2022/06/26 00:48:20;;;;;;;132.38;56.30;;;;;;;-143.10;81.19;50877.56;5041128;28;20048;-70
2022/06/26 00:51:03;;;;;;;124.15;61.80;;;;;;;-143.10;80.41;50873.63;5022052;28;20081;-70
2022/06/26 00:53:52;;;;;;;148.73;63.08;;;;;;;-143.10;79.35;50881.47;5043479;28;20088;-70
2022/06/26 00:56:35;;;;;;;143.90;60.88;;;;;;;-143.10;79.48;50908.88;5043820;28;20056;-70
2022/06/26 00:59:25;;;;;;;132.88;63.97;;;;;;;-143.10;79.89;50856.03;5044535;28;20144;-71
2022/06/26 01:02:07;;;;;;;152.95;66.15;;;;;;;-143.10;79.51;50887.34;5026822;28;20119;-70
2022/06/26 01:04:56;;;;;;;160.60;68.70;;;;;;;-143.10;78.44;50889.31;5038392;28;20045;-71
2022/06/26 01:07:39;;;;;;;150.93;70.82;;;;;;;-143.10;78.70;50873.63;5042510;28;20156;-70
2022/06/26 01:10:28;;;;;;;155.10;71.35;;;;;;;-143.10;78.46;50844.28;5042615;28;20497;-71
2022/06/26 01:13:10;;;;;;;154.40;73.75;;;;;;;-143.10;77.66;50861.88;5024384;28;20373;-70
2022/06/26 01:15:59;;;;;;;163.07;72.50;;;;;;;-143.10;77.32;50865.81;5031648;28;20103;-70
2022/06/26 01:18:42;;;;;;;146.80;68.30;;;;;;;-143.10;77.41;50869.72;5042970;28;20052;-70
2022/06/26 01:21:31;;;;;;;161.80;72.25;;;;;;;-143.10;76.37;50869.72;5017724;28;20144;-71
2022/06/26 01:24:14;;;;;;;150.80;70.90;;;;;;;-143.10;76.48;50875.59;5013902;28;20073;-69
2022/06/26 01:27:03;;;;;;;177.88;69.45;;;;;;;-143.10;75.92;50857.97;5022273;28;20049;-70
2022/06/26 01:29:45;;;;;;;152.77;68.13;;;;;;;-143.10;78.15;50859.94;5025030;28;20061;-70
2022/06/26 01:32:36;;;;;;;148.73;65.70;;;;;;;-143.10;75.39;50901.03;5022022;28;20132;-70
2022/06/26 01:35:18;;;;;;;150.73;64.25;;;;;;;-143.10;76.35;50869.72;4993995;28;20713;-71
2022/06/26 01:38:24;;;;;;;141.68;63.83;;;;;;;-143.10;75.40;50859.94;5007949;28;20516;-70
2022/06/26 01:41:13;;;;;;;156.95;61.60;;;;;;;-143.10;73.43;50889.31;5007856;28;20045;-69
2022/06/26 01:44:09;;;;;;;143.65;61.20;;;;;;;-143.10;73.84;50889.31;4988562;28;20069;-71
2022/06/26 01:47:04;;;;;;;141.38;62.78;;;;;;;-143.10;75.80;50871.69;4999197;28;20513;-70
2022/06/26 01:49:53;;;;;;;129.35;59.10;;;;;;;-143.10;75.75;50869.72;5007379;28;20050;-70
2022/06/26 01:52:35;;;;;;;126.78;56.72;;;;;;;-143.10;72.09;50854.06;5007435;28;20057;-71
2022/06/26 01:55:30;;;;;;;131.55;55.42;;;;;;;-143.10;71.67;50854.06;5007443;28;20073;-72
2022/06/26 01:58:09;;;;;;;118.70;50.08;;;;;;;-143.10;69.01;50856.03;5007590;28;20052;-70
2022/06/26 02:00:57;;;;;;;;;;;;;;;-143.10;69.57;50867.75;5008348;28;20450;-70
2022/06/26 02:03:40;;;;;;;122.15;49.20;;;;;;;-143.10;71.42;50844.28;5003186;28;20119;-70
2022/06/26 02:06:29;;;;;;;96.97;45.53;;;;;;;-143.10;65.85;50863.84;5024772;28;20049;-70
2022/06/26 02:13:36;;;;;;;92.60;42.90;;;;;;;-143.10;67.98;50869.72;5007223;28;20084;-72
2022/06/26 02:15:29;;;;;;;84.40;35.13;;;;;;;-143.10;65.18;50861.88;5006960;28;20048;-72
2022/06/26 02:18:12;;;;;;;72.63;33.65;;;;;;;-143.10;65.09;50838.41;5007201;28;20056;-70
2022/06/26 02:21:02;;;;;;;83.45;32.72;;;;;;;-143.10;65.59;50834.47;5007429;28;20064;-71
2022/06/26 02:23:46;;;;;;;71.45;32.00;;;;;;;-143.10;61.70;50834.47;5003138;28;20137;-71
2022/06/26 02:26:35;;;;;;;65.43;30.80;;;;;;;-143.10;62.31;50877.56;4985907;28;20088;-71
2022/06/26 02:29:17;;;;;;;69.63;29.95;;;;;;;-143.10;62.40;50832.53;4986220;28;20064;-71
2022/06/26 02:32:06;;;;;;;54.80;25.58;;;;;;;-143.10;58.23;50850.16;5029241;28;20053;-71
2022/06/26 02:34:48;;;;;;;59.92;25.27;;;;;;;-143.10;58.83;50818.81;5032487;28;20066;-71
2022/06/26 02:37:41;;;;;;;48.92;24.60;;;;;;;-143.10;59.79;50834.47;5005263;28;20137;-71
2022/06/26 02:40:27;;;;;;;64.63;25.45;;;;;;;-143.10;59.38;50830.56;5005263;28;20156;-71
2022/06/26 02:43:29;;;;;;;64.25;24.48;;;;;;;-143.10;59.23;50809.03;5023415;28;20676;-71
2022/06/26 02:46:18;;;;;;;56.42;22.42;;;;;;;-143.10;58.61;50840.34;5029280;28;20049;-71
2022/06/26 02:49:01;;;;;;;;;;;;;;;-143.10;55.26;50826.66;5020120;28;20053;-71
2022/06/26 02:51:56;;;;;;;45.80;20.45;;;;;;;-143.10;54.07;50826.66;5024180;28;19940;-71
2022/06/26 02:54:32;;;;;;;39.78;19.40;;;;;;;-143.10;60.85;50812.94;5040487;28;20045;-70
2022/06/26 02:57:21;;;;;;;52.00;20.33;;;;;;;-143.10;55.24;50826.66;5041770;28;20051;-70
2022/06/26 03:00:14;;;;;;;54.80;20.17;;;;;;;-143.10;52.22;50811.00;5023465;28;20052;-70
2022/06/26 03:02:56;;;;;;;56.58;20.65;;;;;;;-143.10;53.33;50814.91;5023583;28;20047;-69
2022/06/26 03:05:45;;;;;;;49.88;19.98;;;;;;;-143.10;50.97;50818.81;5008783;28;20755;-70
2022/06/26 03:08:31;;;;;;;45.67;20.17;;;;;;;-143.10;51.68;50820.78;5022630;28;20047;-70
2022/06/26 03:11:20;;;;;;;46.45;18.77;;;;;;;-143.10;51.61;50820.78;5023647;28;20049;-70
2022/06/26 03:14:02;;;;;;;42.60;17.60;;;;;;;-143.10;54.00;50807.06;5023481;28;20056;-70
2022/06/26 03:16:56;;;;;;;53.70;20.58;;;;;;;-143.10;51.59;50814.91;5022291;28;20529;-70
2022/06/26 03:19:38;;;;;;;47.15;19.05;;;;;;;-143.10;51.13;50805.13;5003672;28;20052;-69
2022/06/26 03:22:27;;;;;;;51.15;16.35;;;;;;;-143.10;54.50;50785.53;5002990;28;20134;-70
2022/06/26 03:25:11;;;;;;;39.55;17.05;;;;;;;-143.10;47.90;50824.69;5030003;28;20110;-70
2022/06/26 03:28:00;;;;;;;42.03;16.83;;;;;;;-143.10;47.94;50822.75;5042195;28;20060;-70
2022/06/26 03:30:51;;;;;;;44.60;15.63;;;;;;;-143.10;48.42;50811.00;5024359;28;20049;-70
2022/06/26 03:33:40;;;;;;;33.70;15.93;;;;;;;-143.10;47.89;50826.66;5005360;28;20230;-71
2022/06/26 03:36:30;;;;;;;38.10;15.18;;;;;;;-143.10;51.49;50830.56;5024068;28;20136;-69
2022/06/26 03:39:12;;;;;;;40.75;16.13;;;;;;;-143.10;51.04;50812.94;5016805;28;20045;-70
2022/06/26 03:42:02;;;;;;;32.65;14.38;;;;;;;-143.10;47.54;50814.91;5013609;28;20045;-70
2022/06/26 03:44:52;;;;;;;38.38;14.45;;;;;;;-143.10;47.23;50816.88;5014967;28;20071;-70
2022/06/26 03:47:41;;;;;;;37.50;14.27;;;;;;;-143.10;49.07;50811.00;5033520;28;20577;-71
2022/06/26 03:50:23;;;;;;;37.03;13.68;;;;;;;-143.10;49.92;50826.66;5024205;28;20049;-71
2022/06/26 03:53:12;;;;;;;42.05;14.30;;;;;;;-143.10;46.14;50795.34;5024543;28;20045;-71
2022/06/26 03:55:54;;;;;;;37.45;14.65;;;;;;;-143.10;47.39;50801.19;5024773;28;20077;-70
2022/06/26 03:58:44;;;;;;;33.67;13.18;;;;;;;-143.10;48.14;50785.53;5024918;28;20386;-69
2022/06/26 04:01:26;;;;;;;38.45;13.20;;;;;;;-143.10;46.90;50824.69;5022016;28;20053;-71
2022/06/26 04:04:16;;;;;;;35.13;13.35;;;;;;;-143.10;47.30;50791.41;5024136;28;20047;-71
2022/06/26 04:06:59;;;;;;;35.45;12.85;;;;;;;-143.10;47.08;50781.63;5044961;28;20049;-70
2022/06/26 04:09:51;;;;;;;37.05;13.23;;;;;;;-143.10;45.77;50781.63;5015514;28;20060;-71
2022/06/26 04:12:34;;;;;;;39.45;12.43;;;;;;;-143.10;46.31;50811.00;5024945;28;20168;-68
2022/06/26 04:15:23;;;;;;;32.70;11.40;;;;;;;-143.10;47.47;50818.81;5039705;28;20121;-71
2022/06/26 04:18:13;;;;;;;31.92;11.52;;;;;;;-143.10;43.92;50809.03;5018876;28;20041;-70
2022/06/26 04:20:55;;;;;;;41.50;10.95;;;;;;;-143.10;41.08;50807.06;5024471;28;20156;-70
2022/06/26 04:23:45;;;;;;;27.08;9.82;;;;;;;-143.10;45.24;50818.81;5019584;28;20056;-71
2022/06/26 04:26:27;;;;;;;37.20;11.65;;;;;;;-143.10;42.19;50799.25;5041356;28;20044;-69
2022/06/26 04:29:16;;;;;;;29.23;10.05;;;;;;;-143.10;45.76;50783.59;5025066;28;20415;-71
2022/06/26 04:31:58;;;;;;;25.60;8.85;;;;;;;-143.10;42.68;50816.88;5033402;28;20083;-71
2022/06/26 04:34:49;;;;;;;58.72;24.00;;;;;;;-143.10;40.27;50795.34;5032192;28;20119;-70
2022/06/26 04:37:32;;;;;;;32.75;13.48;;;;;;;-143.10;41.43;50783.59;5022384;28;20053;-71
2022/06/26 04:40:21;;;;;;;38.63;13.73;;;;;;;-143.10;46.26;50793.38;5041059;28;20130;-71
2022/06/26 04:43:16;;;;;;;26.83;10.13;;;;;;;-143.10;40.45;50814.91;5041987;28;20129;-69
2022/06/26 04:46:11;;;;;;;28.60;9.95;;;;;;;-143.10;43.86;50779.66;5012951;28;20037;-70
2022/06/26 04:49:04;;;;;;;28.38;7.68;;;;;;;-143.10;39.78;50750.31;5021801;28;20233;-70
2022/06/26 04:51:53;;;;;;;22.42;7.80;;;;;;;-143.10;39.22;50781.63;5034339;28;20048;-71
2022/06/26 04:54:48;;;;;;;26.10;7.70;;;;;;;-143.10;38.48;50807.06;5029327;28;20049;-69
2022/06/26 04:57:42;;;;;;;26.13;6.90;;;;;;;-143.10;39.61;50756.19;5028055;28;20057;-69
2022/06/26 05:00:24;;;;;;;30.67;8.63;;;;;;;-143.10;40.59;50805.13;5018992;28;20044;-70
2022/06/26 05:03:30;;;;;;;25.90;6.50;;;;;;;-143.10;40.52;50795.34;5022882;28;20063;-71
2022/06/26 05:06:38;;;;;;;23.58;7.00;;;;;;;-143.10;42.80;50777.72;5025660;28;20044;-73
2022/06/26 05:09:31;;;;;;;20.02;6.75;;;;;;;-143.10;39.08;50767.91;5014243;28;20192;-70
2022/06/26 05:12:20;;;;;;;27.13;6.22;;;;;;;-143.10;37.37;50807.06;5024631;28;20803;-73
2022/06/26 05:15:32;;;;;;;28.25;6.45;;;;;;;-143.10;37.42;50785.53;5016136;28;20055;-70
2022/06/26 05:18:16;;;;;;;20.60;6.40;;;;;;;-143.10;37.80;50787.50;5029654;28;20053;-69
2022/06/26 05:21:05;;;;;;;24.60;5.95;;;;;;;-143.10;35.47;50779.66;5016894;28;20076;-70
2022/06/26 05:23:48;;;;;;;29.05;7.32;;;;;;;-143.10;37.32;50748.34;5032060;28;20052;-70
2022/06/26 05:26:39;;;;;;;31.40;7.15;;;;;;;-143.10;42.06;50767.91;5012536;28;20480;-70
2022/06/26 05:29:21;;;;;;;19.88;6.30;;;;;;;-143.10;39.66;50779.66;5007694;28;20059;-70
2022/06/26 05:32:11;;;;;;;26.17;6.70;;;;;;;-143.10;38.05;50765.97;5017917;28;20403;-72
2022/06/26 05:34:54;;;;;;;29.75;8.00;;;;;;;-143.10;40.00;50767.91;5015237;28;20053;-70
2022/06/26 05:37:43;;;;;;;19.75;7.22;;;;;;;-143.10;37.48;50783.59;5015265;28;20075;-70
2022/06/26 05:40:25;;;;;;;23.00;6.70;;;;;;;-143.10;40.13;50785.53;5035738;28;20377;-69
2022/06/26 05:43:14;;;;;;;18.38;6.80;;;;;;;-143.10;37.09;50793.38;5023925;28;20071;-70
2022/06/26 05:46:05;;;;;;;20.35;6.60;;;;;;;-143.10;37.01;50779.66;5052972;27;20056;-70
2022/06/26 05:49:06;;;;;;;18.90;6.10;;;;;;;-143.10;40.05;50809.03;5031788;28;20745;-71
2022/06/26 05:52:13;;;;;;;23.70;6.35;;;;;;;-143.10;36.84;50783.59;4979888;28;20045;-70
2022/06/26 05:55:21;;;;;;;26.38;7.20;;;;;;;-143.10;35.79;50752.25;5023049;28;20199;-71
2022/06/26 05:58:30;;;;;;;27.17;7.55;;;;;;;-143.10;36.26;50764.00;5024462;28;20347;-69
2022/06/26 06:01:21;;;;;;;30.88;7.20;;;;;;;-143.10;36.32;50785.53;5024970;28;20591;-70
2022/06/26 06:04:16;;;;;;;20.38;6.68;;;;;;;-143.10;37.69;50779.66;5007760;28;20159;-69
2022/06/26 06:06:58;;;;;;;19.15;7.47;;;;;;;-143.10;38.56;50754.22;5007966;28;20084;-69
2022/06/26 06:09:47;;;;;;;24.13;6.88;;;;;;;-143.10;37.28;50769.88;5001444;28;20049;-71
2022/06/26 06:12:32;;;;;;;18.15;6.65;;;;;;;-143.10;36.46;50773.78;5024411;28;20055;-70
2022/06/26 06:15:22;;;;;;;22.88;6.35;;;;;;;-143.10;38.88;50760.09;5024721;28;20049;-70
2022/06/26 06:18:04;;;;;;;25.80;6.82;;;;;;;-143.10;38.44;50771.84;5025279;28;20441;-70
2022/06/26 06:20:53;;;;;;;22.17;6.40;;;;;;;-143.10;37.51;50767.91;5024951;28;20049;-70
2022/06/26 06:23:50;;;;;;;17.08;6.22;;;;;;;-143.10;40.63;50764.00;5005126;28;20142;-70
2022/06/26 06:26:39;;;;;;;20.88;6.15;;;;;;;-143.10;38.68;50748.34;5002345;28;20144;-70
2022/06/26 06:29:27;;;;;;;13.48;5.70;;;;;;;-143.10;42.35;50767.91;5005625;28;20050;-71
2022/06/26 06:32:17;;;;;;;21.25;6.80;;;;;;;-143.10;36.72;50765.97;5005248;28;20061;-69
2022/06/26 06:35:07;;;;;;;21.02;7.05;;;;;;;-143.10;39.68;50803.16;5006567;28;20041;-69
2022/06/26 06:37:56;;;;;;;31.85;6.90;;;;;;;-143.10;41.36;50771.84;5023778;28;20079;-69
2022/06/26 06:40:38;;;;;;;;;;;;;;;-143.10;39.63;50744.44;4985516;28;20045;-70
2022/06/26 06:43:34;;;;;;;17.45;6.93;;;;;;;-143.10;40.04;50771.84;5023104;28;20249;-69
2022/06/26 06:46:45;;;;;;;23.25;7.68;;;;;;;-143.10;37.26;50771.84;5036193;28;20045;-69
2022/06/26 06:49:43;;;;;;;19.85;7.35;;;;;;;-143.10;38.35;50756.19;5027242;28;20049;-70
2022/06/26 06:52:19;;;;;;;29.75;7.32;;;;;;;-143.10;37.43;50781.63;5026083;28;20053;-70
2022/06/26 06:55:07;;;;;;;30.70;7.85;;;;;;;-143.10;39.22;50748.34;5026432;28;20048;-70
2022/06/26 06:57:50;;;;;;;;;;;;;;;-143.10;38.73;50767.91;5027221;28;20081;-71
2022/06/26 07:00:55;;;;;;;20.98;6.75;;;;;;;-143.10;36.82;50789.47;5027269;28;19924;-70
2022/06/26 07:03:45;;;;;;;26.30;7.95;;;;;;;-143.10;38.05;50754.22;5026379;28;20397;-69
2022/06/26 07:06:34;;;;;;;25.20;9.23;;;;;;;-143.10;38.67;50740.50;5029043;28;20044;-70
2022/06/26 07:09:16;;;;;;;26.48;7.78;;;;;;;-143.10;38.22;50746.38;5044129;28;20476;-72
2022/06/26 07:12:05;;;;;;;24.35;7.72;;;;;;;-143.10;37.84;50756.19;5026892;28;20059;-70
2022/06/26 07:14:54;;;;;;;23.95;7.07;;;;;;;-143.10;37.96;50756.19;5043985;28;20058;-71
2022/06/26 07:17:36;;;;;;;22.67;8.07;;;;;;;-143.10;37.69;50773.78;5025843;28;20072;-70
2022/06/26 07:20:25;;;;;;;27.17;7.15;;;;;;;-143.10;38.01;50718.97;5025708;28;20064;-70
2022/06/26 07:23:10;;;;;;;31.05;8.27;;;;;;;-143.10;37.75;50718.97;5025797;28;20037;-69
2022/06/26 07:26:09;;;;;;;30.45;9.25;;;;;;;-143.10;37.74;50738.56;5025803;28;20127;-69
2022/06/26 07:28:58;;;;;;;25.75;7.90;;;;;;;-143.10;38.56;50764.00;5025356;28;20591;-70
2022/06/26 07:31:47;;;;;;;20.27;7.03;;;;;;;-143.10;40.94;50720.94;5024659;28;20140;-70
2022/06/26 07:34:36;;;;;;;22.60;8.40;;;;;;;-143.10;37.78;50775.75;5023162;28;20052;-69
2022/06/26 07:37:26;;;;;;;23.45;7.85;;;;;;;-143.10;38.50;50760.09;5025566;28;20084;-70
2022/06/26 07:40:19;;;;;;;29.40;8.00;;;;;;;-143.10;38.38;50779.66;5025945;28;20055;-69
2022/06/26 07:43:07;;;;;;;22.23;7.43;;;;;;;-143.10;46.38;50760.09;5030300;28;20623;-70
2022/06/26 07:45:56;;;;;;;24.02;8.20;;;;;;;-143.10;37.21;50718.97;5032616;28;20052;-69
2022/06/26 07:48:45;;;;;;;;;;;;;;;-143.10;38.42;50787.50;5042921;28;20057;-69
2022/06/26 07:51:38;;;;;;;20.30;6.60;;;;;;;-143.10;40.25;50781.63;5029695;28;19931;-70
2022/06/26 07:54:27;;;;;;;21.90;8.35;;;;;;;-143.10;37.49;50744.44;5047350;28;20053;-69
2022/06/26 07:57:09;;;;;;;22.40;7.40;;;;;;;-143.10;36.42;50750.31;5029221;28;20056;-70
2022/06/26 07:59:58;;;;;;;29.45;8.45;;;;;;;-143.10;36.69;50746.38;5047491;28;20056;-70
2022/06/26 08:02:47;;;;;;;28.02;8.80;;;;;;;-143.10;37.67;50760.09;5047234;28;20049;-68
2022/06/26 08:05:36;;;;;;;30.33;8.63;;;;;;;-143.10;37.14;50767.91;5046998;28;20110;-68
2022/06/26 08:08:18;;;;;;;22.33;8.27;;;;;;;-143.10;40.03;50781.63;5047505;28;20048;-69
2022/06/26 08:11:07;;;;;;;30.92;8.23;;;;;;;-143.10;38.49;50740.50;5029357;28;20045;-68
2022/06/26 08:13:49;;;;;;;28.42;9.05;;;;;;;-143.10;38.60;50732.69;5046704;28;20123;-70
2022/06/26 08:16:38;;;;;;;23.08;9.40;;;;;;;-143.10;39.11;50793.38;5045693;28;20037;-69
2022/06/26 08:19:20;;;;;;;28.65;8.60;;;;;;;-143.10;39.95;50767.91;5033783;28;20528;-69
2022/06/26 08:22:09;;;;;;;24.80;8.73;;;;;;;-143.10;39.98;50718.97;5011242;28;20049;-70
2022/06/26 08:24:51;;;;;;;29.17;9.15;;;;;;;-143.10;39.42;50771.84;5041822;28;20049;-70
2022/06/26 08:27:40;;;;;;;29.48;8.75;;;;;;;-143.10;38.72;50775.75;5046555;28;20037;-69
2022/06/26 08:30:22;;;;;;;27.30;8.98;;;;;;;-143.10;39.70;50762.06;5046465;28;20048;-69
2022/06/26 08:33:11;;;;;;;32.35;8.68;;;;;;;-143.10;38.70;50767.91;5046921;28;20045;-70
2022/06/26 08:35:53;;;;;;;25.70;8.57;;;;;;;-143.10;38.49;50748.34;5046683;28;20106;-68
2022/06/26 08:38:42;;;;;;;27.77;9.50;;;;;;;-143.10;37.99;50748.34;5029330;28;20535;-68
2022/06/26 08:41:29;;;;;;;19.95;7.78;;;;;;;-143.10;38.76;50742.47;5046309;28;20491;-69
2022/06/26 08:44:19;;;;;;;33.15;9.32;;;;;;;-143.10;37.99;50726.81;5046407;28;20653;-69
2022/06/26 08:47:02;;;;;;;;;;;;;;;-143.10;40.03;50760.09;5058891;28;20048;-72
2022/06/26 08:49:58;;;;;;;29.30;8.38;;;;;;;-143.10;39.65;50767.91;5027574;28;20678;-70
2022/06/26 08:52:51;;;;;;;27.80;9.60;;;;;;;-143.10;39.33;50746.38;5007758;28;20056;-71
2022/06/26 08:55:40;;;;;;;23.55;8.27;;;;;;;-143.10;37.96;50754.22;5026732;28;20060;-69
2022/06/26 08:58:22;;;;;;;24.77;9.32;;;;;;;-143.10;38.67;50738.56;5026686;28;20149;-70
2022/06/26 09:01:12;;;;;;;23.45;9.05;;;;;;;-143.10;38.97;50736.59;5008571;28;20123;-69
2022/06/26 09:03:53;;;;;;;;;;;;;;;-143.10;39.91;50764.00;5027295;28;20052;-70
2022/06/26 09:06:43;;;;;;;27.05;9.02;;;;;;;-143.10;38.72;50765.97;5008542;28;20288;-69
2022/06/26 09:09:28;;;;;;;;;;;;;;;-143.10;40.32;50736.59;5009128;28;20044;-71
2022/06/26 09:12:17;;;;;;;21.55;9.32;;;;;;;-143.10;38.92;50789.47;5025939;28;19987;-70
2022/06/26 09:14:59;;;;;;;29.23;9.43;;;;;;;-143.10;37.57;50756.19;5026337;28;20041;-70
2022/06/26 09:17:48;;;;;;;24.48;9.35;;;;;;;-143.10;37.78;50734.66;5026166;28;20060;-70
2022/06/26 09:20:53;;;;;;;27.45;8.68;;;;;;;-143.10;38.14;50769.88;5031666;28;20171;-69
2022/06/26 09:23:35;;;;;;;31.67;8.98;;;;;;;-143.10;40.00;50758.13;5044138;28;20057;-70
2022/06/26 09:26:24;;;;;;;26.10;8.90;;;;;;;-143.10;41.17;50771.84;5045328;28;20052;-70
2022/06/26 09:29:18;;;;;;;19.00;9.30;;;;;;;-143.10;41.05;50722.91;5045541;28;20128;-68
2022/06/26 09:32:12;;;;;;;34.08;9.10;;;;;;;-143.10;42.90;50748.34;5046039;28;20410;-70
2022/06/26 09:35:01;;;;;;;20.35;9.00;;;;;;;-143.10;39.76;50754.22;5045899;28;20103;-71
2022/06/26 09:37:44;;;;;;;20.70;8.73;;;;;;;-143.10;39.28;50775.75;5046260;28;20053;-70
2022/06/26 09:40:38;;;;;;;29.27;8.88;;;;;;;-143.10;38.12;50756.19;5045056;28;20053;-70
2022/06/26 09:43:29;;;;;;;23.60;8.48;;;;;;;-143.10;38.81;50746.38;5045029;28;20373;-69
2022/06/26 09:46:21;;;;;;;25.90;8.85;;;;;;;-143.10;38.51;50744.44;5039506;28;20045;-70
2022/06/26 09:49:03;;;;;;;26.70;8.48;;;;;;;-143.10;40.09;50718.97;5041007;28;20124;-70
2022/06/26 09:51:59;;;;;;;22.58;8.30;;;;;;;-143.10;39.60;50762.06;5049721;28;20199;-69
2022/06/26 09:54:34;;;;;;;31.73;8.40;;;;;;;-143.10;40.93;50744.44;5065530;28;20051;-70
2022/06/26 09:57:25;;;;;;;23.95;8.77;;;;;;;-143.10;40.27;50744.44;5065102;28;20044;-69
2022/06/26 10:00:10;;;;;;;19.23;9.23;;;;;;;-143.10;39.41;50752.25;5064763;28;20113;-68
2022/06/26 10:09:16;;;;;;;27.48;8.10;;;;;;;-143.10;40.36;50760.09;5024681;28;20053;-69
2022/06/26 10:12:06;;;;;;;24.23;9.00;;;;;;;-143.10;38.66;50750.31;5025351;28;20609;-69
2022/06/26 10:14:51;;;;;;;;;;;;;;;-143.10;38.72;50724.84;5025259;28;20169;-68
2022/06/26 10:18:09;;;;;;;25.98;9.30;;;;;;;-143.10;38.06;50713.09;5024649;28;19925;-70
2022/06/26 10:20:53;;;;;;;26.05;7.88;;;;;;;-143.10;37.69;50748.34;5008328;28;20041;-68
2022/06/26 10:23:43;;;;;;;26.83;8.93;;;;;;;-143.10;37.99;50748.34;5024672;28;20136;-69
2022/06/26 10:26:26;;;;;;;31.10;9.32;;;;;;;-143.10;37.53;50760.09;5024557;28;20806;-69
2022/06/26 10:29:21;;;;;;;29.42;9.27;;;;;;;-143.10;38.45;50771.84;5024478;28;20064;-68
2022/06/26 10:31:57;;;;;;;29.30;10.25;;;;;;;-143.10;39.53;50728.78;5025368;28;20491;-69
2022/06/26 10:35:03;;;;;;;31.83;8.88;;;;;;;-143.10;38.98;50758.13;5035272;28;20389;-70
2022/06/26 10:37:41;;;;;;;18.80;9.27;;;;;;;-143.10;38.59;50736.59;5028376;28;20123;-68
2022/06/26 10:44:09;;;;;;;23.40;7.70;;;;;;;-143.10;38.47;50720.94;5044287;28;20174;-69
2022/06/26 10:47:04;;;;;;;28.27;8.57;;;;;;;-143.10;37.37;50771.84;5048681;28;20121;-69
2022/06/26 10:49:59;;;;;;;22.45;8.68;;;;;;;-143.10;40.43;50695.50;5045430;28;20079;-69
2022/06/26 10:52:54;;;;;;;27.48;9.10;;;;;;;-143.10;38.51;50728.78;5024451;28;20660;-69
2022/06/26 10:56:02;;;;;;;21.90;8.68;;;;;;;-143.10;38.85;50732.69;4990423;28;20033;-70
2022/06/26 10:58:42;;;;;;;20.77;9.05;;;;;;;-143.10;38.67;50717.03;5024521;28;20046;-70
2022/06/26 11:01:32;;;;;;;28.50;8.98;;;;;;;-143.10;41.37;50748.34;4989388;28;20430;-70
2022/06/26 11:04:21;;;;;;;24.08;9.65;;;;;;;-143.10;39.19;50760.09;4989118;28;20046;-69
2022/06/26 11:07:03;;;;;;;31.58;10.38;;;;;;;-143.10;38.85;50744.44;5004890;28;20042;-69
2022/06/26 11:09:52;;;;;;;23.05;8.63;;;;;;;-143.10;39.09;50752.25;5004404;28;20042;-70
2022/06/26 11:12:45;;;;;;;25.00;8.75;;;;;;;-143.10;40.07;50736.59;5004251;28;20049;-70
2022/06/26 11:15:38;;;;;;;26.10;9.00;;;;;;;-143.10;40.58;50734.66;4987620;28;20053;-69
2022/06/26 11:18:33;;;;;;;18.73;8.38;;;;;;;-143.10;41.11;50748.34;5003440;28;20054;-69
2022/06/26 11:21:28;;;;;;;20.10;8.98;;;;;;;-143.10;39.78;50732.69;4988014;28;20058;-70
2022/06/26 11:24:11;;;;;;;28.77;8.90;;;;;;;-143.10;40.18;50744.44;5024105;28;20148;-69
2022/06/26 11:27:04;;;;;;;30.33;8.75;;;;;;;-143.10;39.60;50752.25;5007278;28;20037;-73
2022/06/26 11:29:53;;;;;;;25.13;9.70;;;;;;;-143.10;40.13;50740.50;5024340;28;20045;-70
2022/06/26 11:32:35;;;;;;;25.67;10.43;;;;;;;-143.10;40.31;50748.34;5023846;28;20053;-70
2022/06/26 11:35:27;;;;;;;24.30;8.02;;;;;;;-143.10;39.82;50764.00;5023288;28;20049;-70
2022/06/26 11:38:20;;;;;;;28.42;8.63;;;;;;;-143.10;38.60;50740.50;5007770;28;20064;-71
2022/06/26 11:41:09;;;;;;;27.38;9.23;;;;;;;-143.10;41.88;50718.97;5023229;28;20053;-71
2022/06/26 11:44:13;;;;;;;27.13;8.98;;;;;;;-143.10;40.13;50746.38;5023547;28;20053;-69
2022/06/26 11:47:08;;;;;;;27.90;9.30;;;;;;;-143.10;38.33;50728.78;4997029;28;20049;-67
2022/06/26 11:49:58;;;;;;;27.25;9.30;;;;;;;-143.10;38.67;50732.69;5023799;28;20049;-70
2022/06/26 11:53:05;;;;;;;24.13;8.75;;;;;;;-143.10;39.68;50722.91;5022324;28;20053;-70
2022/06/26 11:56:03;;;;;;;26.73;9.38;;;;;;;-143.10;39.06;50744.44;5023763;28;20042;-70
2022/06/26 11:59:04;;;;;;;21.40;8.73;;;;;;;-143.10;39.08;50717.03;5015936;28;20057;-70
2022/06/26 12:01:54;;;;;;;25.80;9.32;;;;;;;-143.10;38.25;50738.56;5022522;28;20425;-70
2022/06/26 12:04:59;;;;;;;28.98;8.38;;;;;;;-143.10;37.72;50771.84;5015980;28;20668;-69
2022/06/26 12:07:51;;;;;;;26.63;9.32;;;;;;;-143.10;39.08;50756.19;5040183;28;20045;-69
2022/06/26 12:10:40;;;;;;;22.90;8.57;;;;;;;-143.10;40.13;50760.09;5043411;28;20065;-70
2022/06/26 12:13:30;;;;;;;;;;;;;;;-143.10;40.40;50728.78;5026051;28;20056;-70
2022/06/26 12:16:19;;;;;;;22.88;8.38;;;;;;;-143.10;41.16;50713.09;5042898;28;19929;-69
2022/06/26 12:19:09;;;;;;;24.77;8.38;;;;;;;-143.10;41.67;50738.56;5042553;28;20049;-69
2022/06/26 12:21:58;;;;;;;24.35;8.85;;;;;;;-143.10;41.10;50752.25;5043198;28;20159;-69
2022/06/26 12:24:40;;;;;;;21.08;8.32;;;;;;;-143.10;40.72;50748.34;5043375;28;20056;-69
2022/06/26 12:27:37;;;;;;;26.60;10.20;;;;;;;-143.10;43.29;50744.44;5044984;28;20469;-69
2022/06/26 12:30:27;;;;;;;25.13;8.50;;;;;;;-143.10;41.42;50732.69;5046912;28;20059;-70
2022/06/26 12:33:16;;;;;;;24.45;8.00;;;;;;;-143.10;43.18;50771.84;5046691;28;20080;-71
2022/06/26 12:36:06;;;;;;;30.13;8.85;;;;;;;-143.10;44.42;50748.34;5047285;28;20202;-70
2022/06/26 12:38:48;;;;;;;21.98;8.60;;;;;;;-143.10;45.08;50771.84;5046836;28;20045;-68
2022/06/26 12:41:37;;;;;;;31.08;9.75;;;;;;;-143.10;40.62;50736.59;5028611;28;20111;-69
2022/06/26 12:44:26;;;;;;;26.05;9.50;;;;;;;-143.10;41.63;50744.44;5043655;28;20120;-69
2022/06/26 12:47:15;;;;;;;24.85;9.25;;;;;;;-143.10;51.99;50742.47;5058863;28;20625;-70
2022/06/26 12:49:57;;;;;;;23.52;8.73;;;;;;;-143.10;41.90;50764.00;5048071;28;20110;-70
2022/06/26 12:52:47;;;;;;;24.98;8.63;;;;;;;-143.10;43.62;50744.44;5042040;27;20436;-71
2022/06/26 12:55:36;;;;;;;23.08;8.80;;;;;;;-143.10;46.26;50732.69;5037045;28;20069;-70
2022/06/26 12:58:22;;;;;;;32.08;9.13;;;;;;;-143.10;47.23;50732.69;5043961;28;20041;-70
2022/06/26 13:01:11;;;;;;;24.80;9.25;;;;;;;-143.10;48.31;50760.09;5042385;28;20068;-70